Sand Lake, Florida
Current Conditions -  °F | °C
As of 5:53 AM on Friday 31 Oct 2014 (Local Time) from KMCO Reporting Station
Scattered Clouds Scattered Clouds  
Wind Chill: 68°   Ceiling: Unl
Heat Index: 68°   Visibility: 10mi
Dew Point: 65°   Wind: 8mph
Humidity: 90%   Direction: 350°N
Pressure: 29.84"   Gusts: NA
Location:  28.4565°N, 81.4676°W
Report Text: KMCO 310953Z 35007KT 10SM FEW045 SCT080 20/18 A2984 RMK AO2 SLP103 T02000183
Loading
Personal Weather Stations






























Interactive Weather Map
Tropical Storm Tracking
New forecast layout! Learn more

10-Day Weather Forecast

Advertisements
Track Severe Weather on mobile